Fisher Golf — FUGD — position and weather

sailwx.info

Track history (hours):
 
Tides and Currents Weather Stations Pressure Air Temp Water Temp Dewpoint Dewpoint Depression Visibility Wind Speed Wind Dir Waves Ship Positions

Fisher Golf

Last reported at 2017-Aug-29 19:54 UTC. Time now 2017-Sep-19 22:27 UTC.
Position N 45°55' W 001°20'.
Warning: this ship's position is 21 days out of date.

Length 20 m.

Type: Fishing. MMSI: 228239000.

Date/timePositionNaut miles runAvg speedWind from/ knotsBaromVisibWave heightAir tempDewpointWater temp
2017-Aug-29 19:54N 45°55' W 001°20'3 1.1
2017-Aug-29 17:36N 45°54' W 001°23'1 9.5
2017-Aug-29 17:30N 45°54' W 001°24'5 9.3
2017-Aug-29 17:00N 45°55' W 001°31'5 9.3
2017-Aug-29 16:30N 45°56' W 001°37'5 9.5
2017-Aug-29 15:58N 45°57' W 001°44'4 9.4
2017-Aug-29 15:30N 45°58' W 001°50'32 9.0
2017-Aug-29 11:54N 46°05' W 002°36'4 9.1
2017-Aug-29 11:30N 46°06' W 002°41'  
2017-Aug-27 00:00N 46°30' W 003°28'7 1.6
2017-Aug-26 19:54N 46°35' W 003°21'1 3.0
2017-Aug-26 19:24N 46°34' W 003°22'2 2.6
2017-Aug-26 18:42N 46°32' W 003°23'1 3.1
2017-Aug-26 18:24N 46°32' W 003°25'1 3.1
2017-Aug-26 18:00N 46°31' W 003°26'2 3.2
2017-Aug-26 17:27N 46°30' W 003°28'1 3.2
2017-Aug-26 17:00N 46°29' W 003°30'8 1.8
2017-Aug-26 12:47N 46°35' W 003°36'7 2.0
2017-Aug-26 09:32N 46°39' W 003°44'3 2.7
2017-Aug-26 08:24N 46°38' W 003°49'1 2.9
2017-Aug-26 07:56N 46°38' W 003°51'3 3.4
2017-Aug-26 07:09N 46°38' W 003°54'1 2.1
2017-Aug-26 06:52N 46°39' W 003°54'2 3.1
2017-Aug-26 06:14N 46°39' W 003°51'2 2.9
2017-Aug-26 05:33N 46°39' W 003°49'0 2.9
2017-Aug-26 05:29N 46°39' W 003°48'1 2.8
2017-Aug-26 05:00N 46°39' W 003°46'1 2.8
2017-Aug-26 04:28N 46°39' W 003°44'2 2.0
2017-Aug-26 03:20N 46°37' W 003°42'4 3.6
2017-Aug-26 02:07N 46°34' W 003°46'1 2.1
2017-Aug-26 01:48N 46°33' W 003°46'1 3.4
2017-Aug-26 01:29N 46°32' W 003°46'2 3.4
2017-Aug-26 00:56N 46°30' W 003°45'107 2.3
2017-Aug-24 03:31N 45°55' W 001°20'24 0.6
2017-Aug-22 11:25N 46°01' W 001°53'4 9.9
2017-Aug-22 11:00N 46°02' W 001°58'5 9.8
2017-Aug-22 10:30N 46°04' W 002°05'9 9.4
2017-Aug-22 09:30N 46°07' W 002°18'19 9.1
2017-Aug-22 07:24N 46°13' W 002°44'3 8.7
2017-Aug-22 07:01N 46°14' W 002°49'6 8.7
2017-Aug-22 06:18N 46°15' W 002°57'41 2.6
2017-Aug-21 14:41N 46°39' W 003°46'1 2.8
2017-Aug-21 14:29N 46°39' W 003°46'2 2.9
2017-Aug-21 13:51N 46°39' W 003°43'1 2.9
2017-Aug-21 13:28N 46°39' W 003°41'1 2.9
2017-Aug-21 12:59N 46°38' W 003°39'1 2.9
2017-Aug-21 12:31N 46°38' W 003°38'2 3.0
2017-Aug-21 11:52N 46°37' W 003°35'1 3.0
2017-Aug-21 11:25N 46°37' W 003°33'1 2.9
2017-Aug-21 11:00N 46°37' W 003°32'2 3.5
2017-Aug-21 10:30N 46°36' W 003°29'0 0.7
2017-Aug-21 10:00N 46°36' W 003°29'1 2.9
2017-Aug-21 09:31N 46°37' W 003°31'1 2.8
2017-Aug-21 09:00N 46°37' W 003°33'1 2.7
2017-Aug-21 08:31N 46°38' W 003°35'6 2.7
2017-Aug-21 06:28N 46°38' W 003°43'1 0.1
2017-Aug-20 22:00N 46°39' W 003°42'17 1.3
2017-Aug-20 08:15N 46°35' W 004°06'  
Track history (hours):
 
Tides and Currents Weather Stations Pressure Air Temp Water Temp Dewpoint Dewpoint Depression Visibility Wind Speed Wind Dir Waves Ship Positions

Fisher Golf

Last reported at 2017-Aug-29 19:54 UTC. Time now 2017-Sep-19 22:27 UTC.
Position N 45°55' W 001°20'.
Warning: this ship's position is 21 days out of date.

Length 20 m.

Type: Fishing. MMSI: 228239000.

Date/timePositionNaut miles runAvg speedWind from/ knotsBaromVisibWave heightAir tempDewpointWater temp
2017-Aug-29 19:54N 45°55' W 001°20'3 1.1
2017-Aug-29 17:36N 45°54' W 001°23'1 9.5
2017-Aug-29 17:30N 45°54' W 001°24'5 9.3
2017-Aug-29 17:00N 45°55' W 001°31'5 9.3
2017-Aug-29 16:30N 45°56' W 001°37'5 9.5
2017-Aug-29 15:58N 45°57' W 001°44'4 9.4
2017-Aug-29 15:30N 45°58' W 001°50'32 9.0
2017-Aug-29 11:54N 46°05' W 002°36'4 9.1
2017-Aug-29 11:30N 46°06' W 002°41'  
2017-Aug-27 00:00N 46°30' W 003°28'7 1.6
2017-Aug-26 19:54N 46°35' W 003°21'1 3.0
2017-Aug-26 19:24N 46°34' W 003°22'2 2.6
2017-Aug-26 18:42N 46°32' W 003°23'1 3.1
2017-Aug-26 18:24N 46°32' W 003°25'1 3.1
2017-Aug-26 18:00N 46°31' W 003°26'2 3.2
2017-Aug-26 17:27N 46°30' W 003°28'1 3.2
2017-Aug-26 17:00N 46°29' W 003°30'8 1.8
2017-Aug-26 12:47N 46°35' W 003°36'7 2.0
2017-Aug-26 09:32N 46°39' W 003°44'3 2.7
2017-Aug-26 08:24N 46°38' W 003°49'1 2.9
2017-Aug-26 07:56N 46°38' W 003°51'3 3.4
2017-Aug-26 07:09N 46°38' W 003°54'1 2.1
2017-Aug-26 06:52N 46°39' W 003°54'2 3.1
2017-Aug-26 06:14N 46°39' W 003°51'2 2.9
2017-Aug-26 05:33N 46°39' W 003°49'0 2.9
2017-Aug-26 05:29N 46°39' W 003°48'1 2.8
2017-Aug-26 05:00N 46°39' W 003°46'1 2.8
2017-Aug-26 04:28N 46°39' W 003°44'2 2.0
2017-Aug-26 03:20N 46°37' W 003°42'4 3.6
2017-Aug-26 02:07N 46°34' W 003°46'1 2.1
2017-Aug-26 01:48N 46°33' W 003°46'1 3.4
2017-Aug-26 01:29N 46°32' W 003°46'2 3.4
2017-Aug-26 00:56N 46°30' W 003°45'107 2.3
2017-Aug-24 03:31N 45°55' W 001°20'24 0.6
2017-Aug-22 11:25N 46°01' W 001°53'4 9.9
2017-Aug-22 11:00N 46°02' W 001°58'5 9.8
2017-Aug-22 10:30N 46°04' W 002°05'9 9.4
2017-Aug-22 09:30N 46°07' W 002°18'19 9.1
2017-Aug-22 07:24N 46°13' W 002°44'3 8.7
2017-Aug-22 07:01N 46°14' W 002°49'6 8.7
2017-Aug-22 06:18N 46°15' W 002°57'41 2.6
2017-Aug-21 14:41N 46°39' W 003°46'1 2.8
2017-Aug-21 14:29N 46°39' W 003°46'2 2.9
2017-Aug-21 13:51N 46°39' W 003°43'1 2.9
2017-Aug-21 13:28N 46°39' W 003°41'1 2.9
2017-Aug-21 12:59N 46°38' W 003°39'1 2.9
2017-Aug-21 12:31N 46°38' W 003°38'2 3.0
2017-Aug-21 11:52N 46°37' W 003°35'1 3.0
2017-Aug-21 11:25N 46°37' W 003°33'1 2.9
2017-Aug-21 11:00N 46°37' W 003°32'2 3.5
2017-Aug-21 10:30N 46°36' W 003°29'0 0.7
2017-Aug-21 10:00N 46°36' W 003°29'1 2.9
2017-Aug-21 09:31N 46°37' W 003°31'1 2.8
2017-Aug-21 09:00N 46°37' W 003°33'1 2.7
2017-Aug-21 08:31N 46°38' W 003°35'6 2.7
2017-Aug-21 06:28N 46°38' W 003°43'1 0.1
2017-Aug-20 22:00N 46°39' W 003°42'17 1.3
2017-Aug-20 08:15N 46°35' W 004°06'  

Dump ship's entire track history